sensor_id;sensor_type;location;lat;lon;timestamp;P1;durP1;ratioP1;P2;durP2;ratioP2
18879;SDS011;9572;52.378;13.404;2024-03-23T00:54:52;15.73;;;3.80;;
18879;SDS011;9572;52.378;13.404;2024-03-23T00:57:19;12.40;;;2.53;;
18879;SDS011;9572;52.378;13.404;2024-03-23T00:59:44;10.87;;;3.00;;
18879;SDS011;9572;52.378;13.404;2024-03-23T01:02:11;14.30;;;2.90;;
18879;SDS011;9572;52.378;13.404;2024-03-23T01:04:37;10.13;;;2.40;;
18879;SDS011;9572;52.378;13.404;2024-03-23T01:07:04;19.07;;;2.80;;
18879;SDS011;9572;52.378;13.404;2024-03-23T01:09:29;17.43;;;2.87;;
18879;SDS011;9572;52.378;13.404;2024-03-23T01:11:57;9.93;;;2.00;;
18879;SDS011;9572;52.378;13.404;2024-03-23T01:14:23;10.30;;;2.10;;
18879;SDS011;9572;52.378;13.404;2024-03-23T01:16:50;15.10;;;2.47;;
18879;SDS011;9572;52.378;13.404;2024-03-23T01:19:16;16.67;;;2.90;;
18879;SDS011;9572;52.378;13.404;2024-03-23T01:21:42;14.10;;;2.90;;
18879;SDS011;9572;52.378;13.404;2024-03-23T01:24:08;13.13;;;2.87;;
18879;SDS011;9572;52.378;13.404;2024-03-23T01:26:35;8.00;;;2.77;;
18879;SDS011;9572;52.378;13.404;2024-03-23T01:29:03;8.73;;;2.37;;
18879;SDS011;9572;52.378;13.404;2024-03-23T01:31:30;12.87;;;2.63;;
18879;SDS011;9572;52.378;13.404;2024-03-23T01:33:56;12.63;;;2.53;;
18879;SDS011;9572;52.378;13.404;2024-03-23T01:36:23;10.87;;;2.67;;
18879;SDS011;9572;52.378;13.404;2024-03-23T01:38:49;16.03;;;3.23;;
18879;SDS011;9572;52.378;13.404;2024-03-23T01:41:17;17.20;;;3.50;;
18879;SDS011;9572;52.378;13.404;2024-03-23T01:43:42;12.80;;;2.50;;
18879;SDS011;9572;52.378;13.404;2024-03-23T01:46:11;11.37;;;2.83;;
18879;SDS011;9572;52.378;13.404;2024-03-23T01:48:36;11.13;;;2.50;;
18879;SDS011;9572;52.378;13.404;2024-03-23T01:51:03;9.53;;;2.97;;
18879;SDS011;9572;52.378;13.404;2024-03-23T01:53:30;15.67;;;3.23;;
18879;SDS011;9572;52.378;13.404;2024-03-23T01:55:57;11.57;;;2.73;;
18879;SDS011;9572;52.378;13.404;2024-03-23T01:58:22;13.30;;;3.43;;
18879;SDS011;9572;52.378;13.404;2024-03-23T02:00:49;13.63;;;3.20;;
18879;SDS011;9572;52.378;13.404;2024-03-23T02:03:26;12.87;;;2.87;;
18879;SDS011;9572;52.378;13.404;2024-03-23T02:05:53;16.90;;;2.93;;
18879;SDS011;9572;52.378;13.404;2024-03-23T02:08:21;20.30;;;2.97;;
18879;SDS011;9572;52.378;13.404;2024-03-23T02:10:48;13.67;;;2.60;;
18879;SDS011;9572;52.378;13.404;2024-03-23T02:13:15;15.10;;;2.70;;
18879;SDS011;9572;52.378;13.404;2024-03-23T02:15:42;12.93;;;2.70;;
18879;SDS011;9572;52.378;13.404;2024-03-23T02:18:10;18.37;;;3.43;;
18879;SDS011;9572;52.378;13.404;2024-03-23T02:20:39;14.23;;;2.47;;
18879;SDS011;9572;52.378;13.404;2024-03-23T02:23:09;11.97;;;2.87;;
18879;SDS011;9572;52.378;13.404;2024-03-23T02:25:39;15.67;;;2.50;;
18879;SDS011;9572;52.378;13.404;2024-03-23T02:28:05;10.23;;;2.67;;
18879;SDS011;9572;52.378;13.404;2024-03-23T02:30:32;12.63;;;2.70;;
18879;SDS011;9572;52.378;13.404;2024-03-23T02:32:58;16.37;;;2.80;;
18879;SDS011;9572;52.378;13.404;2024-03-23T02:35:24;12.10;;;2.53;;
18879;SDS011;9572;52.378;13.404;2024-03-23T02:37:50;13.50;;;2.67;;
18879;SDS011;9572;52.378;13.404;2024-03-23T02:40:19;12.43;;;2.77;;
18879;SDS011;9572;52.378;13.404;2024-03-23T02:42:45;10.63;;;2.80;;
18879;SDS011;9572;52.378;13.404;2024-03-23T02:45:12;13.93;;;2.50;;
18879;SDS011;9572;52.378;13.404;2024-03-23T02:47:38;10.87;;;2.50;;
18879;SDS011;9572;52.378;13.404;2024-03-23T02:50:05;15.40;;;2.63;;
18879;SDS011;9572;52.378;13.404;2024-03-23T02:52:31;18.50;;;2.47;;
18879;SDS011;9572;52.378;13.404;2024-03-23T02:54:58;15.33;;;2.60;;
18879;SDS011;9572;52.378;13.404;2024-03-23T02:57:25;14.53;;;3.27;;
18879;SDS011;9572;52.378;13.404;2024-03-23T02:59:52;16.57;;;3.10;;
18879;SDS011;9572;52.378;13.404;2024-03-23T03:02:18;15.70;;;2.50;;
18879;SDS011;9572;52.378;13.404;2024-03-23T03:04:44;12.43;;;2.67;;
18879;SDS011;9572;52.378;13.404;2024-03-23T03:07:10;19.30;;;3.37;;
18879;SDS011;9572;52.378;13.404;2024-03-23T03:09:37;10.73;;;2.30;;
18879;SDS011;9572;52.378;13.404;2024-03-23T03:12:04;10.27;;;2.40;;
18879;SDS011;9572;52.378;13.404;2024-03-23T03:14:32;12.10;;;2.43;;
18879;SDS011;9572;52.378;13.404;2024-03-23T03:16:58;13.50;;;2.80;;
18879;SDS011;9572;52.378;13.404;2024-03-23T03:19:25;12.97;;;2.50;;
18879;SDS011;9572;52.378;13.404;2024-03-23T03:21:51;10.67;;;2.63;;
18879;SDS011;9572;52.378;13.404;2024-03-23T03:24:18;13.57;;;2.90;;
18879;SDS011;9572;52.378;13.404;2024-03-23T03:26:43;16.20;;;2.60;;
18879;SDS011;9572;52.378;13.404;2024-03-23T03:29:10;12.50;;;2.73;;
18879;SDS011;9572;52.378;13.404;2024-03-23T03:31:38;12.73;;;2.23;;
18879;SDS011;9572;52.378;13.404;2024-03-23T03:34:05;16.57;;;2.17;;
18879;SDS011;9572;52.378;13.404;2024-03-23T03:36:31;16.10;;;2.50;;
18879;SDS011;9572;52.378;13.404;2024-03-23T03:38:57;20.90;;;3.47;;
18879;SDS011;9572;52.378;13.404;2024-03-23T03:41:23;14.50;;;2.80;;
18879;SDS011;9572;52.378;13.404;2024-03-23T03:43:50;15.30;;;3.20;;
18879;SDS011;9572;52.378;13.404;2024-03-23T03:46:16;12.73;;;2.87;;
18879;SDS011;9572;52.378;13.404;2024-03-23T03:48:44;17.33;;;2.70;;
18879;SDS011;9572;52.378;13.404;2024-03-23T03:51:10;19.43;;;3.13;;
18879;SDS011;9572;52.378;13.404;2024-03-23T03:53:37;12.97;;;2.77;;
18879;SDS011;9572;52.378;13.404;2024-03-23T03:56:02;20.87;;;3.37;;
18879;SDS011;9572;52.378;13.404;2024-03-23T03:58:29;16.67;;;3.20;;
18879;SDS011;9572;52.378;13.404;2024-03-23T04:00:55;13.37;;;3.07;;
18879;SDS011;9572;52.378;13.404;2024-03-23T04:03:22;11.53;;;2.77;;
18879;SDS011;9572;52.378;13.404;2024-03-23T04:05:51;19.77;;;3.20;;
18879;SDS011;9572;52.378;13.404;2024-03-23T04:08:18;10.40;;;3.00;;
18879;SDS011;9572;52.378;13.404;2024-03-23T04:10:45;18.50;;;3.53;;
18879;SDS011;9572;52.378;13.404;2024-03-23T04:13:11;12.07;;;2.70;;
18879;SDS011;9572;52.378;13.404;2024-03-23T04:15:38;17.63;;;3.80;;
18879;SDS011;9572;52.378;13.404;2024-03-23T04:18:04;14.97;;;3.27;;
18879;SDS011;9572;52.378;13.404;2024-03-23T04:20:31;13.87;;;3.13;;
18879;SDS011;9572;52.378;13.404;2024-03-23T04:22:58;14.37;;;3.00;;
18879;SDS011;9572;52.378;13.404;2024-03-23T04:25:25;14.37;;;2.50;;
18879;SDS011;9572;52.378;13.404;2024-03-23T04:27:51;10.83;;;2.40;;
18879;SDS011;9572;52.378;13.404;2024-03-23T04:30:18;11.93;;;2.13;;
18879;SDS011;9572;52.378;13.404;2024-03-23T04:32:44;20.10;;;3.10;;
18879;SDS011;9572;52.378;13.404;2024-03-23T04:35:12;18.17;;;3.50;;
18879;SDS011;9572;52.378;13.404;2024-03-23T04:37:38;16.10;;;2.83;;
18879;SDS011;9572;52.378;13.404;2024-03-23T04:40:15;20.83;;;3.37;;
18879;SDS011;9572;52.378;13.404;2024-03-23T04:42:42;12.67;;;2.83;;
18879;SDS011;9572;52.378;13.404;2024-03-23T04:45:09;14.37;;;2.57;;
18879;SDS011;9572;52.378;13.404;2024-03-23T04:47:36;11.93;;;1.93;;
18879;SDS011;9572;52.378;13.404;2024-03-23T04:50:03;11.90;;;2.10;;
18879;SDS011;9572;52.378;13.404;2024-03-23T04:52:31;12.13;;;2.20;;
18879;SDS011;9572;52.378;13.404;2024-03-23T04:54:57;9.60;;;2.20;;
18879;SDS011;9572;52.378;13.404;2024-03-23T04:57:25;12.53;;;2.27;;
18879;SDS011;9572;52.378;13.404;2024-03-23T04:59:52;8.00;;;1.93;;
18879;SDS011;9572;52.378;13.404;2024-03-23T05:02:18;13.90;;;2.77;;
18879;SDS011;9572;52.378;13.404;2024-03-23T05:04:45;11.97;;;2.43;;
18879;SDS011;9572;52.378;13.404;2024-03-23T05:07:10;12.97;;;2.30;;
18879;SDS011;9572;52.378;13.404;2024-03-23T05:09:37;15.00;;;2.70;;
18879;SDS011;9572;52.378;13.404;2024-03-23T05:12:03;12.67;;;2.77;;
18879;SDS011;9572;52.378;13.404;2024-03-23T05:14:31;9.50;;;1.80;;
18879;SDS011;9572;52.378;13.404;2024-03-23T05:16:57;11.43;;;2.30;;
18879;SDS011;9572;52.378;13.404;2024-03-23T05:19:25;10.80;;;2.20;;
18879;SDS011;9572;52.378;13.404;2024-03-23T05:21:51;10.13;;;2.50;;
18879;SDS011;9572;52.378;13.404;2024-03-23T05:24:18;17.43;;;2.20;;
18879;SDS011;9572;52.378;13.404;2024-03-23T05:26:43;8.90;;;1.70;;
18879;SDS011;9572;52.378;13.404;2024-03-23T05:29:10;10.83;;;2.33;;
18879;SDS011;9572;52.378;13.404;2024-03-23T05:31:39;13.33;;;2.43;;
18879;SDS011;9572;52.378;13.404;2024-03-23T05:34:07;10.63;;;2.43;;
18879;SDS011;9572;52.378;13.404;2024-03-23T05:36:33;11.17;;;2.53;;
18879;SDS011;9572;52.378;13.404;2024-03-23T05:39:01;11.17;;;1.90;;
18879;SDS011;9572;52.378;13.404;2024-03-23T05:41:27;11.37;;;2.20;;
18879;SDS011;9572;52.378;13.404;2024-03-23T05:43:53;11.90;;;2.33;;
18879;SDS011;9572;52.378;13.404;2024-03-23T05:46:19;9.93;;;2.23;;
18879;SDS011;9572;52.378;13.404;2024-03-23T05:48:47;8.97;;;2.20;;
18879;SDS011;9572;52.378;13.404;2024-03-23T05:51:13;9.53;;;1.70;;
18879;SDS011;9572;52.378;13.404;2024-03-23T05:53:41;14.77;;;2.60;;
18879;SDS011;9572;52.378;13.404;2024-03-23T05:56:06;14.80;;;2.17;;
18879;SDS011;9572;52.378;13.404;2024-03-23T05:58:34;9.43;;;2.20;;
18879;SDS011;9572;52.378;13.404;2024-03-23T06:01:00;7.40;;;1.90;;
18879;SDS011;9572;52.378;13.404;2024-03-23T06:03:27;10.63;;;2.33;;
18879;SDS011;9572;52.378;13.404;2024-03-23T06:05:55;14.27;;;2.43;;
18879;SDS011;9572;52.378;13.404;2024-03-23T06:08:22;10.67;;;2.50;;
18879;SDS011;9572;52.378;13.404;2024-03-23T06:10:49;13.90;;;2.67;;
18879;SDS011;9572;52.378;13.404;2024-03-23T06:13:16;14.37;;;2.53;;
18879;SDS011;9572;52.378;13.404;2024-03-23T06:15:43;10.97;;;2.17;;
18879;SDS011;9572;52.378;13.404;2024-03-23T06:18:10;14.73;;;2.60;;
18879;SDS011;9572;52.378;13.404;2024-03-23T06:20:37;9.37;;;2.00;;
18879;SDS011;9572;52.378;13.404;2024-03-23T06:23:04;9.37;;;2.30;;
18879;SDS011;9572;52.378;13.404;2024-03-23T06:25:31;8.07;;;2.20;;
18879;SDS011;9572;52.378;13.404;2024-03-23T06:27:57;7.50;;;2.10;;
18879;SDS011;9572;52.378;13.404;2024-03-23T06:30:24;9.07;;;2.27;;
18879;SDS011;9572;52.378;13.404;2024-03-23T06:32:51;13.37;;;2.83;;
18879;SDS011;9572;52.378;13.404;2024-03-23T06:35:18;12.13;;;2.83;;
18879;SDS011;9572;52.378;13.404;2024-03-23T06:37:44;9.10;;;2.30;;
18879;SDS011;9572;52.378;13.404;2024-03-23T06:40:12;10.77;;;2.77;;
18879;SDS011;9572;52.378;13.404;2024-03-23T06:42:38;15.97;;;2.40;;
18879;SDS011;9572;52.378;13.404;2024-03-23T06:45:05;7.90;;;2.60;;
18879;SDS011;9572;52.378;13.404;2024-03-23T06:47:31;9.70;;;2.30;;
18879;SDS011;9572;52.378;13.404;2024-03-23T06:49:59;12.03;;;2.90;;
18879;SDS011;9572;52.378;13.404;2024-03-23T06:52:26;6.73;;;2.30;;
18879;SDS011;9572;52.378;13.404;2024-03-23T06:54:53;8.80;;;2.37;;
18879;SDS011;9572;52.378;13.404;2024-03-23T06:57:20;5.10;;;2.17;;
18879;SDS011;9572;52.378;13.404;2024-03-23T06:59:47;9.33;;;2.70;;
18879;SDS011;9572;52.378;13.404;2024-03-23T07:02:14;13.03;;;2.80;;
18879;SDS011;9572;52.378;13.404;2024-03-23T07:04:41;10.43;;;2.63;;
18879;SDS011;9572;52.378;13.404;2024-03-23T07:07:07;9.07;;;2.80;;
18879;SDS011;9572;52.378;13.404;2024-03-23T07:09:34;10.47;;;2.90;;
18879;SDS011;9572;52.378;13.404;2024-03-23T07:12:00;11.70;;;2.27;;
18879;SDS011;9572;52.378;13.404;2024-03-23T07:14:28;7.77;;;2.17;;
18879;SDS011;9572;52.378;13.404;2024-03-23T07:16:53;9.83;;;2.60;;
18879;SDS011;9572;52.378;13.404;2024-03-23T07:19:20;10.37;;;2.70;;
18879;SDS011;9572;52.378;13.404;2024-03-23T07:21:46;6.90;;;2.47;;
18879;SDS011;9572;52.378;13.404;2024-03-23T07:24:13;8.93;;;2.33;;
18879;SDS011;9572;52.378;13.404;2024-03-23T07:26:39;10.27;;;2.20;;
18879;SDS011;9572;52.378;13.404;2024-03-23T07:29:06;11.17;;;2.33;;
18879;SDS011;9572;52.378;13.404;2024-03-23T07:31:33;10.30;;;2.30;;
18879;SDS011;9572;52.378;13.404;2024-03-23T07:34:00;8.27;;;2.27;;
18879;SDS011;9572;52.378;13.404;2024-03-23T07:36:25;9.00;;;2.10;;
18879;SDS011;9572;52.378;13.404;2024-03-23T07:38:52;6.57;;;2.07;;
18879;SDS011;9572;52.378;13.404;2024-03-23T07:41:18;8.40;;;2.10;;
18879;SDS011;9572;52.378;13.404;2024-03-23T07:43:46;7.57;;;2.10;;
18879;SDS011;9572;52.378;13.404;2024-03-23T07:46:13;6.43;;;2.40;;
18879;SDS011;9572;52.378;13.404;2024-03-23T07:48:42;5.83;;;2.40;;
18879;SDS011;9572;52.378;13.404;2024-03-23T07:51:08;9.40;;;2.07;;
18879;SDS011;9572;52.378;13.404;2024-03-23T07:53:36;10.23;;;2.33;;
18879;SDS011;9572;52.378;13.404;2024-03-23T07:56:04;9.60;;;2.40;;
18879;SDS011;9572;52.378;13.404;2024-03-23T07:58:33;10.67;;;2.90;;
18879;SDS011;9572;52.378;13.404;2024-03-23T08:01:03;9.03;;;2.33;;
18879;SDS011;9572;52.378;13.404;2024-03-23T08:03:32;9.07;;;2.20;;
18879;SDS011;9572;52.378;13.404;2024-03-23T08:06:07;11.83;;;3.10;;
18879;SDS011;9572;52.378;13.404;2024-03-23T08:08:34;7.47;;;2.17;;
18879;SDS011;9572;52.378;13.404;2024-03-23T08:11:00;10.77;;;2.53;;
18879;SDS011;9572;52.378;13.404;2024-03-23T08:13:27;12.87;;;2.77;;
18879;SDS011;9572;52.378;13.404;2024-03-23T08:15:55;10.80;;;2.53;;
18879;SDS011;9572;52.378;13.404;2024-03-23T08:18:22;4.47;;;2.03;;
18879;SDS011;9572;52.378;13.404;2024-03-23T08:20:54;9.57;;;2.50;;
18879;SDS011;9572;52.378;13.404;2024-03-23T08:23:23;7.80;;;1.87;;
18879;SDS011;9572;52.378;13.404;2024-03-23T08:25:49;6.53;;;2.40;;
18879;SDS011;9572;52.378;13.404;2024-03-23T08:28:16;8.17;;;2.00;;
18879;SDS011;9572;52.378;13.404;2024-03-23T08:30:42;7.93;;;2.20;;
18879;SDS011;9572;52.378;13.404;2024-03-23T08:33:09;6.47;;;1.90;;
18879;SDS011;9572;52.378;13.404;2024-03-23T08:35:35;7.47;;;1.83;;
18879;SDS011;9572;52.378;13.404;2024-03-23T08:38:02;9.43;;;2.10;;
18879;SDS011;9572;52.378;13.404;2024-03-23T08:40:29;6.27;;;1.80;;
18879;SDS011;9572;52.378;13.404;2024-03-23T08:42:55;9.40;;;2.77;;
18879;SDS011;9572;52.378;13.404;2024-03-23T08:45:21;7.43;;;1.97;;
18879;SDS011;9572;52.378;13.404;2024-03-23T08:47:48;6.70;;;2.53;;
18879;SDS011;9572;52.378;13.404;2024-03-23T08:50:14;8.67;;;2.13;;
18879;SDS011;9572;52.378;13.404;2024-03-23T08:52:41;10.43;;;2.73;;
18879;SDS011;9572;52.378;13.404;2024-03-23T08:55:07;7.17;;;2.10;;
18879;SDS011;9572;52.378;13.404;2024-03-23T08:57:36;4.93;;;1.90;;
18879;SDS011;9572;52.378;13.404;2024-03-23T09:00:02;8.27;;;1.80;;
18879;SDS011;9572;52.378;13.404;2024-03-23T09:02:31;9.07;;;1.90;;
18879;SDS011;9572;52.378;13.404;2024-03-23T09:04:56;6.87;;;1.43;;
18879;SDS011;9572;52.378;13.404;2024-03-23T09:07:29;5.90;;;1.77;;
18879;SDS011;9572;52.378;13.404;2024-03-23T09:09:55;11.17;;;2.03;;
18879;SDS011;9572;52.378;13.404;2024-03-23T09:12:22;13.70;;;1.80;;
18879;SDS011;9572;52.378;13.404;2024-03-23T09:14:49;5.07;;;2.27;;
18879;SDS011;9572;52.378;13.404;2024-03-23T09:17:16;6.63;;;2.00;;
18879;SDS011;9572;52.378;13.404;2024-03-23T09:19:43;5.33;;;1.90;;
18879;SDS011;9572;52.378;13.404;2024-03-23T09:22:09;6.93;;;1.90;;
18879;SDS011;9572;52.378;13.404;2024-03-23T09:24:35;4.77;;;1.73;;
18879;SDS011;9572;52.378;13.404;2024-03-23T09:27:02;3.50;;;1.50;;
18879;SDS011;9572;52.378;13.404;2024-03-23T09:29:28;4.37;;;1.13;;
18879;SDS011;9572;52.378;13.404;2024-03-23T09:31:56;3.57;;;1.00;;
18879;SDS011;9572;52.378;13.404;2024-03-23T09:34:22;3.43;;;1.20;;
18879;SDS011;9572;52.378;13.404;2024-03-23T09:36:50;6.77;;;1.50;;
18879;SDS011;9572;52.378;13.404;2024-03-23T09:39:16;4.27;;;1.10;;
18879;SDS011;9572;52.378;13.404;2024-03-23T09:41:43;5.03;;;1.20;;
18879;SDS011;9572;52.378;13.404;2024-03-23T09:44:09;3.87;;;1.40;;
18879;SDS011;9572;52.378;13.404;2024-03-23T09:46:36;5.70;;;1.30;;
18879;SDS011;9572;52.378;13.404;2024-03-23T09:49:05;5.93;;;1.60;;
18879;SDS011;9572;52.378;13.404;2024-03-23T09:51:35;5.13;;;1.20;;
18879;SDS011;9572;52.378;13.404;2024-03-23T09:54:01;10.30;;;2.27;;
18879;SDS011;9572;52.378;13.404;2024-03-23T09:56:28;6.57;;;1.50;;
18879;SDS011;9572;52.378;13.404;2024-03-23T09:58:59;3.30;;;1.23;;
18879;SDS011;9572;52.378;13.404;2024-03-23T10:01:27;4.97;;;1.30;;
18879;SDS011;9572;52.378;13.404;2024-03-23T10:03:54;5.47;;;1.70;;
18879;SDS011;9572;52.378;13.404;2024-03-23T10:06:22;8.97;;;1.70;;
18879;SDS011;9572;52.378;13.404;2024-03-23T10:08:49;7.90;;;1.80;;
18879;SDS011;9572;52.378;13.404;2024-03-23T10:11:17;4.57;;;1.67;;
18879;SDS011;9572;52.378;13.404;2024-03-23T10:13:44;7.57;;;1.83;;
18879;SDS011;9572;52.378;13.404;2024-03-23T10:16:12;6.93;;;1.83;;
18879;SDS011;9572;52.378;13.404;2024-03-23T10:18:45;7.07;;;2.17;;
18879;SDS011;9572;52.378;13.404;2024-03-23T10:21:14;10.93;;;1.80;;
18879;SDS011;9572;52.378;13.404;2024-03-23T10:23:42;2.80;;;1.10;;
18879;SDS011;9572;52.378;13.404;2024-03-23T10:26:12;9.00;;;1.47;;
18879;SDS011;9572;52.378;13.404;2024-03-23T10:28:50;9.47;;;1.87;;
18879;SDS011;9572;52.378;13.404;2024-03-23T10:31:22;11.80;;;1.83;;
18879;SDS011;9572;52.378;13.404;2024-03-23T10:33:48;9.10;;;1.80;;
18879;SDS011;9572;52.378;13.404;2024-03-23T10:36:15;9.47;;;1.77;;
18879;SDS011;9572;52.378;13.404;2024-03-23T10:38:43;11.17;;;2.00;;
18879;SDS011;9572;52.378;13.404;2024-03-23T10:41:10;6.17;;;1.93;;
18879;SDS011;9572;52.378;13.404;2024-03-23T10:43:36;7.70;;;1.70;;
18879;SDS011;9572;52.378;13.404;2024-03-23T10:46:03;3.80;;;1.10;;
18879;SDS011;9572;52.378;13.404;2024-03-23T10:48:30;11.07;;;1.70;;
18879;SDS011;9572;52.378;13.404;2024-03-23T10:50:57;4.67;;;1.50;;
18879;SDS011;9572;52.378;13.404;2024-03-23T10:53:25;5.07;;;1.27;;
18879;SDS011;9572;52.378;13.404;2024-03-23T10:55:54;3.83;;;1.43;;
18879;SDS011;9572;52.378;13.404;2024-03-23T10:58:21;7.63;;;1.43;;
18879;SDS011;9572;52.378;13.404;2024-03-23T11:00:52;5.57;;;1.60;;
18879;SDS011;9572;52.378;13.404;2024-03-23T11:03:35;5.23;;;1.50;;
18879;SDS011;9572;52.378;13.404;2024-03-23T11:06:02;9.23;;;1.53;;
18879;SDS011;9572;52.378;13.404;2024-03-23T11:08:30;7.03;;;1.53;;
18879;SDS011;9572;52.378;13.404;2024-03-23T11:13:44;8.63;;;1.53;;
18879;SDS011;9572;52.378;13.404;2024-03-23T11:16:14;4.77;;;1.57;;
18879;SDS011;9572;52.378;13.404;2024-03-23T11:18:40;7.43;;;1.50;;
18879;SDS011;9572;52.378;13.404;2024-03-23T11:21:08;5.43;;;1.47;;
18879;SDS011;9572;52.378;13.404;2024-03-23T11:23:34;9.60;;;1.53;;
18879;SDS011;9572;52.378;13.404;2024-03-23T11:26:01;7.63;;;1.90;;
18879;SDS011;9572;52.378;13.404;2024-03-23T11:28:30;3.27;;;1.00;;
18879;SDS011;9572;52.378;13.404;2024-03-23T11:30:56;6.33;;;1.43;;
18879;SDS011;9572;52.378;13.404;2024-03-23T11:33:22;9.67;;;1.63;;
18879;SDS011;9572;52.378;13.404;2024-03-23T11:35:49;4.77;;;1.40;;
18879;SDS011;9572;52.378;13.404;2024-03-23T11:38:17;5.67;;;1.80;;
18879;SDS011;9572;52.378;13.404;2024-03-23T11:40:44;7.27;;;1.47;;
18879;SDS011;9572;52.378;13.404;2024-03-23T11:43:12;6.60;;;1.20;;
18879;SDS011;9572;52.378;13.404;2024-03-23T11:45:42;8.10;;;1.67;;
18879;SDS011;9572;52.378;13.404;2024-03-23T11:48:09;7.37;;;1.83;;
18879;SDS011;9572;52.378;13.404;2024-03-23T11:50:37;7.80;;;2.10;;
18879;SDS011;9572;52.378;13.404;2024-03-23T11:55:53;8.60;;;1.63;;
18879;SDS011;9572;52.378;13.404;2024-03-23T11:58:21;3.67;;;1.47;;
18879;SDS011;9572;52.378;13.404;2024-03-23T12:00:51;6.80;;;1.43;;
18879;SDS011;9572;52.378;13.404;2024-03-23T12:03:17;5.93;;;1.90;;
18879;SDS011;9572;52.378;13.404;2024-03-23T12:05:47;5.47;;;1.47;;
18879;SDS011;9572;52.378;13.404;2024-03-23T12:08:15;3.77;;;1.33;;
18879;SDS011;9572;52.378;13.404;2024-03-23T12:10:44;7.80;;;1.77;;
18879;SDS011;9572;52.378;13.404;2024-03-23T12:13:10;6.73;;;1.80;;
18879;SDS011;9572;52.378;13.404;2024-03-23T12:15:37;9.40;;;1.83;;
18879;SDS011;9572;52.378;13.404;2024-03-23T12:18:07;5.73;;;2.00;;
18879;SDS011;9572;52.378;13.404;2024-03-23T12:20:35;9.00;;;2.10;;
18879;SDS011;9572;52.378;13.404;2024-03-23T12:23:06;8.30;;;2.10;;
18879;SDS011;9572;52.378;13.404;2024-03-23T12:25:36;5.57;;;1.43;;
18879;SDS011;9572;52.378;13.404;2024-03-23T12:28:02;7.17;;;1.30;;
18879;SDS011;9572;52.378;13.404;2024-03-23T12:30:31;8.80;;;1.60;;
18879;SDS011;9572;52.378;13.404;2024-03-23T12:32:57;8.67;;;1.50;;
18879;SDS011;9572;52.378;13.404;2024-03-23T12:35:25;8.40;;;1.80;;
18879;SDS011;9572;52.378;13.404;2024-03-23T12:37:51;7.50;;;1.80;;
18879;SDS011;9572;52.378;13.404;2024-03-23T12:40:17;7.43;;;1.43;;
18879;SDS011;9572;52.378;13.404;2024-03-23T12:42:43;7.03;;;1.67;;
18879;SDS011;9572;52.378;13.404;2024-03-23T12:45:10;4.63;;;1.70;;
18879;SDS011;9572;52.378;13.404;2024-03-23T12:47:36;9.03;;;2.00;;
18879;SDS011;9572;52.378;13.404;2024-03-23T12:50:02;3.50;;;1.33;;
18879;SDS011;9572;52.378;13.404;2024-03-23T12:52:30;7.63;;;2.00;;
18879;SDS011;9572;52.378;13.404;2024-03-23T12:54:57;11.30;;;2.23;;
18879;SDS011;9572;52.378;13.404;2024-03-23T12:57:23;4.07;;;1.30;;
18879;SDS011;9572;52.378;13.404;2024-03-23T12:59:50;9.00;;;1.90;;
18879;SDS011;9572;52.378;13.404;2024-03-23T13:02:17;8.63;;;1.90;;
18879;SDS011;9572;52.378;13.404;2024-03-23T13:04:45;10.47;;;2.07;;
18879;SDS011;9572;52.378;13.404;2024-03-23T13:07:12;6.97;;;1.47;;
18879;SDS011;9572;52.378;13.404;2024-03-23T13:09:40;5.77;;;2.13;;
18879;SDS011;9572;52.378;13.404;2024-03-23T13:12:06;9.67;;;2.17;;
18879;SDS011;9572;52.378;13.404;2024-03-23T13:14:33;8.33;;;2.50;;
18879;SDS011;9572;52.378;13.404;2024-03-23T13:16:59;7.40;;;2.53;;
18879;SDS011;9572;52.378;13.404;2024-03-23T13:19:27;6.10;;;1.57;;
18879;SDS011;9572;52.378;13.404;2024-03-23T13:21:55;6.53;;;1.60;;
18879;SDS011;9572;52.378;13.404;2024-03-23T13:24:22;7.20;;;1.40;;
18879;SDS011;9572;52.378;13.404;2024-03-23T13:26:50;3.67;;;1.20;;
18879;SDS011;9572;52.378;13.404;2024-03-23T13:29:17;6.73;;;1.50;;
18879;SDS011;9572;52.378;13.404;2024-03-23T13:31:43;7.07;;;1.63;;
18879;SDS011;9572;52.378;13.404;2024-03-23T13:34:10;6.83;;;1.70;;
18879;SDS011;9572;52.378;13.404;2024-03-23T13:36:38;7.07;;;1.80;;
18879;SDS011;9572;52.378;13.404;2024-03-23T13:39:04;4.50;;;1.77;;
18879;SDS011;9572;52.378;13.404;2024-03-23T13:41:35;6.53;;;2.10;;
18879;SDS011;9572;52.378;13.404;2024-03-23T13:44:05;5.73;;;1.90;;
18879;SDS011;9572;52.378;13.404;2024-03-23T13:46:30;11.20;;;1.90;;
18879;SDS011;9572;52.378;13.404;2024-03-23T13:48:57;13.77;;;2.00;;
18879;SDS011;9572;52.378;13.404;2024-03-23T13:51:23;8.37;;;2.03;;
18879;SDS011;9572;52.378;13.404;2024-03-23T13:53:52;9.70;;;2.57;;
18879;SDS011;9572;52.378;13.404;2024-03-23T13:56:18;6.93;;;2.20;;
18879;SDS011;9572;52.378;13.404;2024-03-23T13:58:44;5.40;;;1.93;;
18879;SDS011;9572;52.378;13.404;2024-03-23T14:01:13;10.07;;;2.13;;
18879;SDS011;9572;52.378;13.404;2024-03-23T14:03:40;11.10;;;2.57;;
18879;SDS011;9572;52.378;13.404;2024-03-23T14:06:06;8.67;;;2.53;;
18879;SDS011;9572;52.378;13.404;2024-03-23T14:08:33;10.33;;;2.80;;
18879;SDS011;9572;52.378;13.404;2024-03-23T14:11:00;8.10;;;1.93;;
18879;SDS011;9572;52.378;13.404;2024-03-23T14:13:28;10.83;;;2.33;;
18879;SDS011;9572;52.378;13.404;2024-03-23T14:15:54;10.87;;;2.67;;
18879;SDS011;9572;52.378;13.404;2024-03-23T14:18:22;5.77;;;2.00;;
18879;SDS011;9572;52.378;13.404;2024-03-23T14:20:48;9.97;;;2.27;;
18879;SDS011;9572;52.378;13.404;2024-03-23T14:23:15;10.47;;;2.30;;
18879;SDS011;9572;52.378;13.404;2024-03-23T14:25:40;11.80;;;2.90;;
18879;SDS011;9572;52.378;13.404;2024-03-23T14:28:07;11.77;;;3.10;;
18879;SDS011;9572;52.378;13.404;2024-03-23T14:30:38;5.93;;;1.90;;
18879;SDS011;9572;52.378;13.404;2024-03-23T14:33:05;7.70;;;2.63;;
18879;SDS011;9572;52.378;13.404;2024-03-23T14:35:32;6.77;;;2.90;;
18879;SDS011;9572;52.378;13.404;2024-03-23T14:37:59;11.43;;;2.80;;
18879;SDS011;9572;52.378;13.404;2024-03-23T14:40:25;7.50;;;2.57;;
18879;SDS011;9572;52.378;13.404;2024-03-23T14:42:52;11.70;;;3.30;;
18879;SDS011;9572;52.378;13.404;2024-03-23T14:45:18;11.07;;;3.57;;
18879;SDS011;9572;52.378;13.404;2024-03-23T14:47:45;7.63;;;2.60;;
18879;SDS011;9572;52.378;13.404;2024-03-23T14:50:11;8.57;;;3.20;;
18879;SDS011;9572;52.378;13.404;2024-03-23T14:52:41;10.77;;;2.90;;
18879;SDS011;9572;52.378;13.404;2024-03-23T14:55:08;7.50;;;2.60;;
18879;SDS011;9572;52.378;13.404;2024-03-23T14:57:36;10.63;;;3.30;;
18879;SDS011;9572;52.378;13.404;2024-03-23T15:00:02;8.00;;;2.97;;
18879;SDS011;9572;52.378;13.404;2024-03-23T15:02:30;7.17;;;2.63;;
18879;SDS011;9572;52.378;13.404;2024-03-23T15:04:57;6.17;;;1.80;;
18879;SDS011;9572;52.378;13.404;2024-03-23T15:07:24;5.67;;;1.60;;
18879;SDS011;9572;52.378;13.404;2024-03-23T15:09:51;4.43;;;1.50;;
18879;SDS011;9572;52.378;13.404;2024-03-23T15:12:18;3.80;;;1.80;;
18879;SDS011;9572;52.378;13.404;2024-03-23T15:14:44;7.40;;;2.27;;
18879;SDS011;9572;52.378;13.404;2024-03-23T15:17:12;5.70;;;1.80;;
18879;SDS011;9572;52.378;13.404;2024-03-23T15:19:38;6.10;;;1.80;;
18879;SDS011;9572;52.378;13.404;2024-03-23T15:22:05;2.27;;;1.60;;
18879;SDS011;9572;52.378;13.404;2024-03-23T15:24:30;5.77;;;1.30;;
18879;SDS011;9572;52.378;13.404;2024-03-23T15:27:00;2.87;;;1.17;;
18879;SDS011;9572;52.378;13.404;2024-03-23T15:29:26;5.87;;;1.23;;
18879;SDS011;9572;52.378;13.404;2024-03-23T15:31:53;9.87;;;1.47;;
18879;SDS011;9572;52.378;13.404;2024-03-23T15:34:19;4.90;;;1.40;;
18879;SDS011;9572;52.378;13.404;2024-03-23T15:36:46;5.80;;;1.60;;
18879;SDS011;9572;52.378;13.404;2024-03-23T15:39:13;4.10;;;1.33;;